Time,TemperatureF,DewpointF,PressureIn,WindDirection,WindDirectionDegrees,WindSpeedMPH,WindSpeedGustMPH,Humidity,HourlyPrecipIn,Conditions,Clouds,dailyrainin,SoftwareType,DateUTC
2013-07-01 00:04:00,52.5,49.4,30.19,SSW,200,1.0,3.0,89,0.00,CLR,,0.42,WeatherDisplay:10.37,2013-06-30 14:04:00,
2013-07-01 00:09:00,52.5,49.4,30.19,SSW,210,1.0,2.0,89,0.00,CLR,,0.42,WeatherDisplay:10.37,2013-06-30 14:09:00,
2013-07-01 00:19:00,52.7,49.5,30.19,SW,233,0.0,2.0,89,0.00,CLR,,0.42,WeatherDisplay:10.37,2013-06-30 14:19:00,
2013-07-01 00:24:00,52.7,49.5,30.19,SW,217,1.0,2.0,89,0.00,CLR,,0.42,WeatherDisplay:10.37,2013-06-30 14:24:00,
2013-07-01 00:29:00,52.7,49.5,30.19,SW,214,0.0,3.0,89,0.00,CLR,,0.42,WeatherDisplay:10.37,2013-06-30 14:29:00,
2013-07-01 00:34:00,52.7,49.5,30.18,SW,214,2.0,5.0,89,0.00,CLR,,0.42,WeatherDisplay:10.37,2013-06-30 14:34:00,
2013-07-01 00:39:00,52.5,49.4,30.18,SSW,205,5.0,7.0,89,0.00,CLR,,0.42,WeatherDisplay:10.37,2013-06-30 14:39:00,
2013-07-01 00:44:00,52.7,49.5,30.18,SSW,199,5.0,8.0,89,0.00,CLR,,0.42,WeatherDisplay:10.37,2013-06-30 14:44:00,
2013-07-01 00:49:00,52.9,49.7,30.19,SSW,201,3.0,8.0,89,0.00,CLR,,0.42,WeatherDisplay:10.37,2013-06-30 14:49:00,
2013-07-01 00:59:00,53.1,50.2,30.18,SSW,200,3.0,7.0,90,0.00,CLR,,0.42,WeatherDisplay:10.37,2013-06-30 14:59:00,
2013-07-01 01:05:00,53.2,50.4,30.18,SSW,196,3.0,5.0,90,0.00,CLR,,0.42,WeatherDisplay:10.37,2013-06-30 15:05:00,
2013-07-01 01:10:00,53.2,50.4,30.18,SSW,200,1.0,5.0,90,0.00,CLR,,0.42,WeatherDisplay:10.37,2013-06-30 15:10:00,
2013-07-01 01:15:00,53.2,50.4,30.18,SSW,206,2.0,4.0,90,0.00,CLR,,0.42,WeatherDisplay:10.37,2013-06-30 15:15:00,
2013-07-01 01:20:00,53.2,50.4,30.18,SSW,205,2.0,5.0,90,0.00,CLR,,0.42,WeatherDisplay:10.37,2013-06-30 15:20:00,
2013-07-01 01:25:00,53.2,50.4,30.17,SSW,201,2.0,6.0,90,0.00,CLR,,0.42,WeatherDisplay:10.37,2013-06-30 15:25:00,
2013-07-01 01:30:00,53.2,50.4,30.18,SSW,211,2.0,6.0,90,0.00,CLR,,0.42,WeatherDisplay:10.37,2013-06-30 15:30:00,
2013-07-01 01:35:00,53.2,50.4,30.17,SSW,205,2.0,6.0,90,0.00,CLR,,0.42,WeatherDisplay:10.37,2013-06-30 15:35:00,
2013-07-01 01:40:00,53.2,50.4,30.17,SW,214,2.0,4.0,90,0.00,CLR,,0.42,WeatherDisplay:10.37,2013-06-30 15:40:00,
2013-07-01 01:45:00,53.2,50.4,30.17,SSW,212,2.0,5.0,90,0.00,CLR,,0.42,WeatherDisplay:10.37,2013-06-30 15:45:00,
2013-07-01 01:50:00,53.2,50.1,30.17,SSW,206,2.0,4.0,89,0.00,CLR,,0.42,WeatherDisplay:10.37,2013-06-30 15:50:00,
2013-07-01 01:55:00,53.2,50.4,30.17,SSW,213,2.0,6.0,90,0.00,CLR,,0.42,WeatherDisplay:10.37,2013-06-30 15:55:00,
2013-07-01 02:00:00,53.2,50.4,30.17,SSW,212,3.0,6.0,90,0.00,CLR,,0.42,WeatherDisplay:10.37,2013-06-30 16:00:00,
2013-07-01 02:05:00,53.2,50.4,30.17,SSW,213,3.0,5.0,90,0.00,CLR,,0.42,WeatherDisplay:10.37,2013-06-30 16:05:00,
2013-07-01 02:10:00,53.2,50.4,30.17,SSW,205,3.0,6.0,90,0.00,CLR,,0.42,WeatherDisplay:10.37,2013-06-30 16:10:00,
2013-07-01 02:15:00,53.2,50.4,30.17,SSW,209,5.0,8.0,90,0.00,CLR,,0.42,WeatherDisplay:10.37,2013-06-30 16:15:00,
2013-07-01 02:25:00,53.4,50.6,30.17,SSW,211,2.0,3.0,90,0.00,CLR,,0.42,WeatherDisplay:10.37,2013-06-30 16:25:00,
2013-07-01 02:30:00,53.4,50.6,30.17,SW,217,2.0,5.0,90,0.00,CLR,,0.42,WeatherDisplay:10.37,2013-06-30 16:30:00,
2013-07-01 02:35:00,53.4,50.6,30.16,SW,227,1.0,3.0,90,0.00,CLR,,0.42,WeatherDisplay:10.37,2013-06-30 16:35:00,
2013-07-01 02:40:00,53.4,50.6,30.17,SSW,206,1.0,5.0,90,0.00,CLR,,0.42,WeatherDisplay:10.37,2013-06-30 16:40:00,
2013-07-01 02:45:00,53.4,50.6,30.17,SSW,194,1.0,2.0,90,0.00,CLR,,0.42,WeatherDisplay:10.37,2013-06-30 16:45:00,
2013-07-01 02:50:00,53.4,50.6,30.17,South,180,0.0,1.0,90,0.00,CLR,,0.42,WeatherDisplay:10.37,2013-06-30 16:50:00,
2013-07-01 02:55:00,53.4,50.6,30.17,South,183,1.0,4.0,90,0.00,CLR,,0.42,WeatherDisplay:10.37,2013-06-30 16:55:00,
2013-07-01 03:00:00,53.4,50.6,30.17,South,190,0.0,3.0,90,0.00,CLR,,0.42,WeatherDisplay:10.37,2013-06-30 17:00:00,
2013-07-01 03:05:00,53.7,50.9,30.17,South,191,0.0,1.0,90,0.00,CLR,,0.42,WeatherDisplay:10.37,2013-06-30 17:05:00,
2013-07-01 03:10:00,53.8,50.9,30.17,South,191,0.0,1.0,90,0.00,CLR,,0.42,WeatherDisplay:10.37,2013-06-30 17:10:00,
2013-07-01 03:15:00,53.8,50.9,30.16,NNE,14,0.0,1.0,90,0.00,CLR,,0.42,WeatherDisplay:10.37,2013-06-30 17:15:00,
2013-07-01 03:20:00,53.8,50.9,30.17,NNE,23,0.0,1.0,90,0.00,CLR,,0.42,WeatherDisplay:10.37,2013-06-30 17:20:00,
2013-07-01 03:25:00,53.8,50.9,30.16,NE,52,1.0,2.0,90,0.00,CLR,,0.42,WeatherDisplay:10.37,2013-06-30 17:25:00,
2013-07-01 03:30:00,53.8,50.9,30.16,ENE,58,1.0,2.0,90,0.00,CLR,,0.42,WeatherDisplay:10.37,2013-06-30 17:30:00,
2013-07-01 03:35:00,53.8,50.9,30.16,ENE,61,0.0,1.0,90,0.00,CLR,,0.42,WeatherDisplay:10.37,2013-06-30 17:35:00,
2013-07-01 03:40:00,53.8,51.2,30.16,SE,141,1.0,2.0,91,0.00,CLR,,0.42,WeatherDisplay:10.37,2013-06-30 17:40:00,
2013-07-01 03:45:00,53.8,51.2,30.15,SW,214,0.0,2.0,91,0.00,CLR,,0.42,WeatherDisplay:10.37,2013-06-30 17:45:00,
2013-07-01 03:50:00,53.8,51.2,30.15,West,260,0.0,1.0,91,0.00,CLR,,0.42,WeatherDisplay:10.37,2013-06-30 17:50:00,
2013-07-01 03:55:00,53.8,51.2,30.15,SW,231,0.0,0.0,91,0.00,CLR,,0.42,WeatherDisplay:10.37,2013-06-30 17:55:00,
2013-07-01 04:00:00,53.8,51.2,30.15,SSW,211,1.0,2.0,91,0.02,RA,,0.44,WeatherDisplay:10.37,2013-06-30 18:00:00,
2013-07-01 04:05:00,53.8,51.2,30.15,SSW,205,1.0,3.0,91,0.00,RA,,0.44,WeatherDisplay:10.37,2013-06-30 18:05:00,
2013-07-01 04:10:00,53.8,51.2,30.15,SW,216,3.0,5.0,91,0.00,CLR,,0.44,WeatherDisplay:10.37,2013-06-30 18:10:00,
2013-07-01 04:15:00,53.8,51.2,30.15,SSW,211,5.0,7.0,91,0.00,CLR,,0.44,WeatherDisplay:10.37,2013-06-30 18:15:00,
2013-07-01 04:20:00,53.8,51.2,30.15,SSW,213,2.0,5.0,91,0.00,CLR,,0.44,WeatherDisplay:10.37,2013-06-30 18:20:00,
2013-07-01 04:25:00,53.8,51.2,30.14,SSW,211,3.0,8.0,91,0.00,CLR,,0.44,WeatherDisplay:10.37,2013-06-30 18:25:00,
2013-07-01 04:30:00,53.8,51.2,30.14,SSW,213,2.0,5.0,91,0.00,CLR,,0.44,WeatherDisplay:10.37,2013-06-30 18:30:00,
2013-07-01 04:35:00,53.8,51.2,30.14,SSW,209,1.0,3.0,91,0.00,CLR,,0.44,WeatherDisplay:10.37,2013-06-30 18:35:00,
2013-07-01 04:40:00,53.8,51.2,30.14,SSW,196,1.0,2.0,91,0.00,CLR,,0.44,WeatherDisplay:10.37,2013-06-30 18:40:00,
2013-07-01 04:45:00,53.8,51.2,30.14,WSW,250,0.0,2.0,91,0.00,CLR,,0.44,WeatherDisplay:10.37,2013-06-30 18:45:00,
2013-07-01 04:50:00,53.8,51.2,30.14,WSW,252,1.0,2.0,91,0.00,CLR,,0.44,WeatherDisplay:10.37,2013-06-30 18:50:00,
2013-07-01 04:55:00,53.8,51.2,30.14,WSW,239,0.0,1.0,91,0.00,CLR,,0.44,WeatherDisplay:10.37,2013-06-30 18:55:00,
2013-07-01 05:00:00,53.5,50.9,30.14,West,267,0.0,0.0,91,0.00,CLR,,0.44,WeatherDisplay:10.37,2013-06-30 19:00:00,
2013-07-01 05:05:00,53.4,50.9,30.14,WSW,250,0.0,0.0,91,0.00,CLR,,0.44,WeatherDisplay:10.37,2013-06-30 19:05:00,
2013-07-01 05:10:00,53.2,50.7,30.14,SW,232,0.0,1.0,91,0.00,CLR,,0.44,WeatherDisplay:10.37,2013-06-30 19:10:00,
2013-07-01 05:20:00,53.2,50.7,30.15,SE,136,2.0,3.0,91,0.00,CLR,,0.44,WeatherDisplay:10.37,2013-06-30 19:20:00,
2013-07-01 05:25:00,53.2,50.7,30.15,SSE,154,1.0,2.0,91,0.00,CLR,,0.44,WeatherDisplay:10.37,2013-06-30 19:25:00,
2013-07-01 05:30:00,53.2,50.7,30.15,SSW,205,2.0,5.0,91,0.00,CLR,,0.44,WeatherDisplay:10.37,2013-06-30 19:30:00,
2013-07-01 05:40:00,53.3,50.7,30.15,SSW,199,2.0,5.0,91,0.00,CLR,,0.44,WeatherDisplay:10.37,2013-06-30 19:40:00,
2013-07-01 05:45:00,53.2,50.7,30.15,SSW,213,1.0,4.0,91,0.00,CLR,,0.44,WeatherDisplay:10.37,2013-06-30 19:45:00,
2013-07-01 05:50:00,53.2,50.7,30.15,SW,217,1.0,4.0,91,0.00,CLR,,0.44,WeatherDisplay:10.37,2013-06-30 19:50:00,
2013-07-01 05:55:00,53.2,50.7,30.16,SSW,211,0.0,1.0,91,0.00,CLR,,0.44,WeatherDisplay:10.37,2013-06-30 19:55:00,
2013-07-01 06:00:00,53.2,50.7,30.16,SW,214,0.0,1.0,91,0.00,CLR,,0.44,WeatherDisplay:10.37,2013-06-30 20:00:00,
2013-07-01 06:04:00,53.2,50.7,30.16,North,7,0.0,0.0,91,0.00,CLR,,0.44,WeatherDisplay:10.37,2013-06-30 20:04:00,
2013-07-01 06:10:00,53.2,50.7,30.16,North,349,0.0,0.0,91,0.00,CLR,,0.44,WeatherDisplay:10.37,2013-06-30 20:10:00,
2013-07-01 06:15:00,53.2,50.7,30.16,North,357,0.0,0.0,91,0.00,CLR,,0.44,WeatherDisplay:10.37,2013-06-30 20:15:00,
2013-07-01 06:25:00,53.2,50.7,30.17,South,191,2.0,5.0,91,0.00,CLR,,0.44,WeatherDisplay:10.37,2013-06-30 20:25:00,
2013-07-01 06:30:00,53.3,50.8,30.17,SSW,201,2.0,5.0,91,0.00,CLR,,0.44,WeatherDisplay:10.37,2013-06-30 20:30:00,
2013-07-01 06:35:00,53.4,50.9,30.17,South,191,1.0,4.0,91,0.02,RA,,0.46,WeatherDisplay:10.37,2013-06-30 20:35:00,
2013-07-01 06:40:00,53.4,51.2,30.17,South,183,1.0,3.0,92,0.00,RA,,0.46,WeatherDisplay:10.37,2013-06-30 20:40:00,
2013-07-01 06:45:00,53.4,51.2,30.17,SSW,195,2.0,5.0,92,0.00,CLR,,0.46,WeatherDisplay:10.37,2013-06-30 20:45:00,
2013-07-01 06:50:00,53.4,51.2,30.17,SW,219,0.0,3.0,92,0.00,CLR,,0.46,WeatherDisplay:10.37,2013-06-30 20:50:00,
2013-07-01 06:55:00,53.4,51.2,30.17,SW,229,0.0,1.0,92,0.00,CLR,,0.46,WeatherDisplay:10.37,2013-06-30 20:55:00,
2013-07-01 07:00:00,53.4,51.2,30.17,West,269,0.0,1.0,92,0.00,CLR,,0.46,WeatherDisplay:10.37,2013-06-30 21:00:00,
2013-07-01 07:05:00,53.7,51.4,30.17,North,355,0.0,2.0,92,0.00,CLR,,0.46,WeatherDisplay:10.37,2013-06-30 21:05:00,
2013-07-01 07:10:00,53.8,51.5,30.17,NNW,339,1.0,2.0,92,0.00,CLR,,0.46,WeatherDisplay:10.37,2013-06-30 21:10:00,
2013-07-01 07:14:00,53.8,51.5,30.18,NW,321,0.0,0.0,92,0.00,CLR,,0.46,WeatherDisplay:10.37,2013-06-30 21:14:00,
2013-07-01 07:20:00,53.8,51.5,30.18,NNW,348,0.0,1.0,92,0.00,CLR,,0.46,WeatherDisplay:10.37,2013-06-30 21:20:00,
2013-07-01 07:25:00,53.8,51.5,30.18,SE,139,0.0,0.0,92,0.00,CLR,,0.46,WeatherDisplay:10.37,2013-06-30 21:25:00,
2013-07-01 07:30:00,53.8,51.5,30.18,SSE,157,0.0,0.0,92,0.00,CLR,,0.46,WeatherDisplay:10.37,2013-06-30 21:30:00,
2013-07-01 07:35:00,53.8,51.5,30.18,South,187,1.0,2.0,92,0.00,CLR,,0.46,WeatherDisplay:10.37,2013-06-30 21:35:00,
2013-07-01 07:40:00,53.8,51.5,30.18,South,188,0.0,2.0,92,0.00,CLR,,0.46,WeatherDisplay:10.37,2013-06-30 21:40:00,
2013-07-01 07:45:00,53.8,51.5,30.18,SSW,196,1.0,2.0,92,0.00,CLR,,0.46,WeatherDisplay:10.37,2013-06-30 21:45:00,
2013-07-01 07:50:00,53.8,51.5,30.18,SW,229,1.0,2.0,92,0.00,CLR,,0.46,WeatherDisplay:10.37,2013-06-30 21:50:00,
2013-07-01 07:55:00,53.8,51.5,30.18,SW,236,0.0,1.0,92,0.00,CLR,,0.46,WeatherDisplay:10.37,2013-06-30 21:55:00,
2013-07-01 08:00:00,53.8,51.5,30.18,SW,229,0.0,0.0,92,0.00,CLR,,0.46,WeatherDisplay:10.37,2013-06-30 22:00:00,
2013-07-01 08:04:00,54.0,51.7,30.19,SSW,199,0.0,0.0,92,0.00,CLR,,0.46,WeatherDisplay:10.37,2013-06-30 22:04:00,
2013-07-01 08:10:00,54.0,51.7,30.18,WSW,237,0.0,0.0,92,0.00,CLR,,0.46,WeatherDisplay:10.37,2013-06-30 22:10:00,
2013-07-01 08:14:00,54.0,51.7,30.19,West,270,1.0,3.0,92,0.00,CLR,,0.46,WeatherDisplay:10.37,2013-06-30 22:14:00,
2013-07-01 08:20:00,54.1,51.8,30.19,West,268,2.0,4.0,92,0.00,CLR,,0.46,WeatherDisplay:10.37,2013-06-30 22:20:00,
2013-07-01 08:24:00,54.0,51.8,30.19,West,275,1.0,6.0,92,0.00,CLR,,0.46,WeatherDisplay:10.37,2013-06-30 22:24:00,
2013-07-01 08:30:00,54.1,51.8,30.19,West,278,1.0,2.0,92,0.00,CLR,,0.46,WeatherDisplay:10.37,2013-06-30 22:30:00,
2013-07-01 08:35:00,54.1,51.8,30.19,WSW,257,0.0,1.0,92,0.00,CLR,,0.46,WeatherDisplay:10.37,2013-06-30 22:35:00,
2013-07-01 08:40:00,54.1,51.9,30.19,WSW,253,0.0,1.0,92,0.00,CLR,,0.46,WeatherDisplay:10.37,2013-06-30 22:40:00,
2013-07-01 08:45:00,54.1,51.9,30.19,NW,314,0.0,0.0,92,0.00,CLR,,0.46,WeatherDisplay:10.37,2013-06-30 22:45:00,
2013-07-01 08:49:00,54.3,52.0,30.20,NNE,26,0.0,0.0,92,0.00,CLR,,0.46,WeatherDisplay:10.37,2013-06-30 22:49:00,
2013-07-01 08:54:00,54.3,52.0,30.20,NNE,14,0.0,2.0,92,0.00,CLR,,0.46,WeatherDisplay:10.37,2013-06-30 22:54:00,
2013-07-01 09:00:00,54.3,52.1,30.20,NNE,30,0.0,2.0,92,0.00,RA,,0.00,WeatherDisplay:10.37,2013-06-30 23:00:00,
2013-07-01 09:04:00,54.5,52.2,30.20,NE,44,1.0,2.0,92,0.02,RA,,0.02,WeatherDisplay:10.37,2013-06-30 23:04:00,
2013-07-01 09:10:00,54.5,52.2,30.21,NE,53,0.0,2.0,92,0.00,RA,,0.02,WeatherDisplay:10.37,2013-06-30 23:10:00,
2013-07-01 09:14:00,54.5,52.2,30.21,NE,44,0.0,1.0,92,0.02,RA,,0.04,WeatherDisplay:10.37,2013-06-30 23:14:00,
2013-07-01 09:19:00,54.5,52.2,30.20,SE,125,1.0,2.0,92,0.00,RA,,0.04,WeatherDisplay:10.37,2013-06-30 23:19:00,
2013-07-01 09:24:00,54.7,52.4,30.20,SE,140,0.0,2.0,92,0.00,CLR,,0.04,WeatherDisplay:10.37,2013-06-30 23:24:00,
2013-07-01 09:30:00,54.9,52.6,30.21,SSE,163,0.0,2.0,92,0.00,CLR,,0.04,WeatherDisplay:10.37,2013-06-30 23:30:00,
2013-07-01 09:40:00,55.2,52.9,30.20,SSW,209,2.0,4.0,92,0.00,CLR,,0.04,WeatherDisplay:10.37,2013-06-30 23:40:00,
2013-07-01 09:45:00,55.6,53.3,30.20,SW,225,1.0,4.0,92,0.00,CLR,,0.04,WeatherDisplay:10.37,2013-06-30 23:45:00,
2013-07-01 09:50:00,55.9,53.6,30.20,SSW,206,7.0,9.0,92,0.00,CLR,,0.04,WeatherDisplay:10.37,2013-06-30 23:50:00,
2013-07-01 09:54:00,56.3,54.0,30.20,South,185,5.0,9.0,92,0.00,CLR,,0.04,WeatherDisplay:10.37,2013-06-30 23:54:00,
2013-07-01 09:59:00,56.5,54.2,30.20,South,191,5.0,8.0,92,0.00,CLR,,0.04,WeatherDisplay:10.37,2013-06-30 23:59:00,
2013-07-01 10:04:00,56.5,53.9,30.20,South,187,3.0,6.0,91,0.00,CLR,,0.04,WeatherDisplay:10.37,2013-07-01 00:04:00,
2013-07-01 10:10:00,56.5,53.9,30.20,South,170,5.0,7.0,91,0.00,CLR,,0.04,WeatherDisplay:10.37,2013-07-01 00:10:00,
2013-07-01 10:14:00,56.5,53.9,30.20,South,179,2.0,5.0,91,0.00,CLR,,0.04,WeatherDisplay:10.37,2013-07-01 00:14:00,
2013-07-01 10:19:00,56.5,53.9,30.20,South,182,0.0,3.0,91,0.00,CLR,,0.04,WeatherDisplay:10.37,2013-07-01 00:19:00,
2013-07-01 10:24:00,56.5,53.9,30.20,South,179,1.0,2.0,91,0.00,CLR,,0.04,WeatherDisplay:10.37,2013-07-01 00:24:00,
2013-07-01 10:30:00,56.5,53.9,30.20,South,175,0.0,1.0,91,0.00,CLR,,0.04,WeatherDisplay:10.37,2013-07-01 00:30:00,
2013-07-01 10:34:00,56.8,54.2,30.20,SSW,200,2.0,4.0,91,0.00,CLR,,0.04,WeatherDisplay:10.37,2013-07-01 00:34:00,
2013-07-01 10:39:00,57.0,54.4,30.20,SSW,206,1.0,5.0,91,0.00,CLR,,0.04,WeatherDisplay:10.37,2013-07-01 00:39:00,
2013-07-01 10:45:00,57.1,54.2,30.20,SSW,198,2.0,4.0,90,0.00,CLR,,0.04,WeatherDisplay:10.37,2013-07-01 00:45:00,
2013-07-01 10:49:00,57.4,54.5,30.20,SSW,200,3.0,6.0,90,0.00,CLR,,0.04,WeatherDisplay:10.37,2013-07-01 00:49:00,
2013-07-01 10:54:00,57.6,54.6,30.20,SSW,199,1.0,5.0,90,0.00,CLR,,0.04,WeatherDisplay:10.37,2013-07-01 00:54:00,
2013-07-01 10:59:00,57.6,54.6,30.20,SSE,168,5.0,21.0,90,0.00,CLR,,0.04,WeatherDisplay:10.37,2013-07-01 00:59:00,
2013-07-01 11:04:00,57.6,54.3,30.20,South,187,2.0,6.0,89,0.00,CLR,,0.04,WeatherDisplay:10.37,2013-07-01 01:04:00,
2013-07-01 11:09:00,57.7,54.5,30.19,SSW,205,6.0,10.0,89,0.00,CLR,,0.04,WeatherDisplay:10.37,2013-07-01 01:09:00,
2013-07-01 11:14:00,57.7,54.5,30.19,SW,215,7.0,13.0,89,0.00,CLR,,0.04,WeatherDisplay:10.37,2013-07-01 01:14:00,
2013-07-01 11:20:00,57.9,54.7,30.19,SW,214,6.0,11.0,89,0.00,CLR,,0.04,WeatherDisplay:10.37,2013-07-01 01:20:00,
2013-07-01 11:24:00,58.1,54.9,30.19,South,187,6.0,13.0,89,0.00,CLR,,0.04,WeatherDisplay:10.37,2013-07-01 01:24:00,
2013-07-01 11:29:00,58.1,54.9,30.19,SW,214,6.0,7.0,89,0.00,CLR,,0.04,WeatherDisplay:10.37,2013-07-01 01:29:00,
2013-07-01 11:34:00,58.1,54.9,30.19,West,277,6.0,9.0,89,0.00,CLR,,0.04,WeatherDisplay:10.37,2013-07-01 01:34:00,
2013-07-01 11:39:00,58.3,55.1,30.19,WNW,282,8.0,13.0,89,0.00,CLR,,0.04,WeatherDisplay:10.37,2013-07-01 01:39:00,
2013-07-01 11:44:00,58.3,55.1,30.19,WSW,253,7.0,13.0,89,0.00,CLR,,0.04,WeatherDisplay:10.37,2013-07-01 01:44:00,
2013-07-01 11:49:00,58.1,54.6,30.18,WSW,244,9.0,13.0,88,0.00,CLR,,0.04,WeatherDisplay:10.37,2013-07-01 01:49:00,
2013-07-01 11:54:00,58.0,54.8,30.18,WNW,282,8.0,9.0,89,0.00,CLR,,0.04,WeatherDisplay:10.37,2013-07-01 01:54:00,
2013-07-01 11:59:00,57.9,54.7,30.18,WNW,303,6.0,7.0,89,0.00,CLR,,0.04,WeatherDisplay:10.37,2013-07-01 01:59:00,
2013-07-01 12:04:00,57.7,54.5,30.18,NW,305,6.0,6.0,89,0.00,CLR,,0.04,WeatherDisplay:10.37,2013-07-01 02:04:00,
2013-07-01 12:09:00,57.9,54.7,30.18,NW,311,5.0,6.0,89,0.00,CLR,,0.04,WeatherDisplay:10.37,2013-07-01 02:09:00,
2013-07-01 12:14:00,57.9,54.7,30.18,NW,320,5.0,7.0,89,0.00,CLR,,0.04,WeatherDisplay:10.37,2013-07-01 02:14:00,
2013-07-01 12:19:00,57.9,54.7,30.17,WNW,298,5.0,7.0,89,0.00,CLR,,0.04,WeatherDisplay:10.37,2013-07-01 02:19:00,
2013-07-01 12:24:00,58.1,55.2,30.17,West,278,5.0,8.0,90,0.00,CLR,,0.04,WeatherDisplay:10.37,2013-07-01 02:24:00,
2013-07-01 12:29:00,58.3,55.4,30.17,WNW,301,3.0,8.0,90,0.00,CLR,,0.04,WeatherDisplay:10.37,2013-07-01 02:29:00,
2013-07-01 12:34:00,58.3,55.4,30.17,NW,320,3.0,3.0,90,0.00,CLR,,0.04,WeatherDisplay:10.37,2013-07-01 02:34:00,
2013-07-01 12:39:00,58.6,55.7,30.17,NW,309,7.0,8.0,90,0.00,CLR,,0.04,WeatherDisplay:10.37,2013-07-01 02:39:00,
2013-07-01 12:44:00,58.6,55.7,30.16,NW,304,8.0,8.0,90,0.00,CLR,,0.04,WeatherDisplay:10.37,2013-07-01 02:44:00,
2013-07-01 12:49:00,58.6,55.7,30.16,WNW,291,7.0,8.0,90,0.00,CLR,,0.04,WeatherDisplay:10.37,2013-07-01 02:49:00,
2013-07-01 12:54:00,58.5,55.6,30.16,WNW,289,5.0,7.0,90,0.00,CLR,,0.04,WeatherDisplay:10.37,2013-07-01 02:54:00,
2013-07-01 12:59:00,58.6,55.7,30.16,West,271,3.0,7.0,90,0.00,CLR,,0.04,WeatherDisplay:10.37,2013-07-01 02:59:00,
2013-07-01 13:04:00,58.8,55.9,30.15,SSW,213,9.0,12.0,90,0.00,CLR,,0.04,WeatherDisplay:10.37,2013-07-01 03:04:00,
2013-07-01 13:09:00,58.8,55.9,30.16,SSW,206,7.0,10.0,90,0.00,CLR,,0.04,WeatherDisplay:10.37,2013-07-01 03:09:00,
2013-07-01 13:14:00,59.4,56.4,30.15,SSW,200,8.0,11.0,90,0.00,CLR,,0.04,WeatherDisplay:10.37,2013-07-01 03:14:00,
2013-07-01 13:19:00,59.6,56.4,30.15,SSW,197,7.0,10.0,89,0.00,CLR,,0.04,WeatherDisplay:10.37,2013-07-01 03:19:00,
2013-07-01 13:24:00,59.9,56.3,30.15,South,181,7.0,10.0,88,0.00,CLR,,0.04,WeatherDisplay:10.37,2013-07-01 03:24:00,
2013-07-01 13:29:00,60.1,56.2,30.15,South,185,8.0,12.0,87,0.00,CLR,,0.04,WeatherDisplay:10.37,2013-07-01 03:29:00,
2013-07-01 13:34:00,60.1,56.2,30.15,SSW,206,6.0,12.0,87,0.00,CLR,,0.04,WeatherDisplay:10.37,2013-07-01 03:34:00,
2013-07-01 13:39:00,59.8,55.9,30.15,SSW,204,5.0,13.0,87,0.00,CLR,,0.04,WeatherDisplay:10.37,2013-07-01 03:39:00,
2013-07-01 13:44:00,59.7,55.8,30.15,SSW,209,8.0,10.0,87,0.00,CLR,,0.04,WeatherDisplay:10.37,2013-07-01 03:44:00,
2013-07-01 13:49:00,59.9,56.0,30.15,SSW,206,8.0,10.0,87,0.00,CLR,,0.04,WeatherDisplay:10.37,2013-07-01 03:49:00,
2013-07-01 13:54:00,59.9,55.7,30.14,SSW,198,3.0,10.0,86,0.00,CLR,,0.04,WeatherDisplay:10.37,2013-07-01 03:54:00,
2013-07-01 13:59:00,60.0,56.1,30.14,SSW,197,6.0,7.0,87,0.00,CLR,,0.04,WeatherDisplay:10.37,2013-07-01 03:59:00,
2013-07-01 14:04:00,60.1,55.9,30.14,SSW,202,5.0,9.0,86,0.00,CLR,,0.04,WeatherDisplay:10.37,2013-07-01 04:04:00,
2013-07-01 14:09:00,60.1,55.9,30.14,SSW,197,5.0,8.0,86,0.00,CLR,,0.04,WeatherDisplay:10.37,2013-07-01 04:09:00,
2013-07-01 14:14:00,60.2,56.0,30.14,South,191,3.0,7.0,86,0.00,CLR,,0.04,WeatherDisplay:10.37,2013-07-01 04:14:00,
2013-07-01 14:19:00,60.4,56.2,30.14,SSW,196,7.0,12.0,86,0.00,CLR,,0.04,WeatherDisplay:10.37,2013-07-01 04:19:00,
2013-07-01 14:24:00,60.6,56.1,30.14,South,191,6.0,10.0,85,0.00,CLR,,0.04,WeatherDisplay:10.37,2013-07-01 04:24:00,
2013-07-01 14:29:00,60.6,55.8,30.14,South,188,7.0,13.0,84,0.00,CLR,,0.04,WeatherDisplay:10.37,2013-07-01 04:29:00,
2013-07-01 14:34:00,60.6,55.8,30.14,South,183,6.0,8.0,84,0.00,CLR,,0.04,WeatherDisplay:10.37,2013-07-01 04:34:00,
2013-07-01 14:39:00,60.6,55.4,30.14,South,179,6.0,12.0,83,0.00,CLR,,0.04,WeatherDisplay:10.37,2013-07-01 04:39:00,
2013-07-01 14:44:00,60.6,55.4,30.14,South,173,5.0,9.0,83,0.00,CLR,,0.04,WeatherDisplay:10.37,2013-07-01 04:44:00,
2013-07-01 14:49:00,61.0,55.8,30.14,South,172,5.0,12.0,83,0.00,CLR,,0.04,WeatherDisplay:10.37,2013-07-01 04:49:00,
2013-07-01 14:54:00,61.2,56.0,30.14,SSE,168,8.0,12.0,83,0.00,CLR,,0.04,WeatherDisplay:10.37,2013-07-01 04:54:00,
2013-07-01 14:59:00,61.3,56.1,30.14,SSE,165,6.0,12.0,83,0.00,CLR,,0.04,WeatherDisplay:10.37,2013-07-01 04:59:00,
2013-07-01 15:04:00,61.1,55.9,30.14,SSE,168,6.0,10.0,83,0.00,CLR,,0.04,WeatherDisplay:10.37,2013-07-01 05:04:00,
2013-07-01 15:09:00,61.0,55.8,30.14,South,179,3.0,10.0,83,0.00,CLR,,0.04,WeatherDisplay:10.37,2013-07-01 05:09:00,
2013-07-01 15:14:00,61.0,56.1,30.14,South,182,7.0,13.0,84,0.00,CLR,,0.04,WeatherDisplay:10.37,2013-07-01 05:14:00,
2013-07-01 15:19:00,61.0,55.8,30.14,SSW,194,7.0,10.0,83,0.00,CLR,,0.04,WeatherDisplay:10.37,2013-07-01 05:19:00,
2013-07-01 15:24:00,61.0,56.1,30.14,SSW,194,6.0,12.0,84,0.00,CLR,,0.04,WeatherDisplay:10.37,2013-07-01 05:24:00,
2013-07-01 15:29:00,61.0,55.8,30.14,SSW,199,3.0,13.0,83,0.00,CLR,,0.04,WeatherDisplay:10.37,2013-07-01 05:29:00,
2013-07-01 15:34:00,60.6,55.4,30.14,SW,226,3.0,12.0,83,0.00,CLR,,0.04,WeatherDisplay:10.37,2013-07-01 05:34:00,
2013-07-01 15:39:00,60.4,55.6,30.14,West,259,3.0,8.0,84,0.00,CLR,,0.04,WeatherDisplay:10.37,2013-07-01 05:39:00,
2013-07-01 15:44:00,60.1,55.2,30.14,West,279,2.0,8.0,84,0.00,CLR,,0.04,WeatherDisplay:10.37,2013-07-01 05:44:00,
2013-07-01 15:49:00,60.1,55.2,30.14,WNW,296,3.0,6.0,84,0.00,CLR,,0.04,WeatherDisplay:10.37,2013-07-01 05:49:00,
2013-07-01 15:54:00,59.9,55.1,30.14,WNW,284,3.0,5.0,84,0.00,CLR,,0.04,WeatherDisplay:10.37,2013-07-01 05:54:00,
2013-07-01 16:04:00,59.7,54.9,30.14,West,278,1.0,3.0,84,0.00,CLR,,0.04,WeatherDisplay:10.37,2013-07-01 06:04:00,
2013-07-01 16:09:00,59.6,54.8,30.14,WNW,293,2.0,3.0,84,0.00,CLR,,0.04,WeatherDisplay:10.37,2013-07-01 06:09:00,
2013-07-01 16:14:00,59.5,54.7,30.15,WNW,293,1.0,1.0,84,0.00,CLR,,0.04,WeatherDisplay:10.37,2013-07-01 06:14:00,
2013-07-01 16:19:00,59.5,54.7,30.15,WNW,293,1.0,2.0,84,0.00,CLR,,0.04,WeatherDisplay:10.37,2013-07-01 06:19:00,
2013-07-01 16:24:00,59.5,55.0,30.15,NW,310,2.0,2.0,85,0.00,CLR,,0.04,WeatherDisplay:10.37,2013-07-01 06:24:00,
2013-07-01 16:29:00,59.4,54.8,30.15,NW,313,1.0,3.0,85,0.00,CLR,,0.04,WeatherDisplay:10.37,2013-07-01 06:29:00,
2013-07-01 16:34:00,59.4,54.8,30.15,NW,306,2.0,4.0,85,0.00,CLR,,0.04,WeatherDisplay:10.37,2013-07-01 06:34:00,
2013-07-01 16:39:00,59.4,54.8,30.15,West,281,2.0,3.0,85,0.00,CLR,,0.04,WeatherDisplay:10.37,2013-07-01 06:39:00,
2013-07-01 16:44:00,59.4,54.8,30.15,West,272,1.0,3.0,85,0.00,CLR,,0.04,WeatherDisplay:10.37,2013-07-01 06:44:00,
2013-07-01 16:49:00,59.3,54.8,30.15,West,264,2.0,4.0,85,0.00,CLR,,0.04,WeatherDisplay:10.37,2013-07-01 06:49:00,
2013-07-01 16:54:00,59.2,54.7,30.15,WSW,250,2.0,3.0,85,0.00,CLR,,0.04,WeatherDisplay:10.37,2013-07-01 06:54:00,
2013-07-01 16:59:00,59.2,54.7,30.16,WSW,248,0.0,2.0,85,0.00,CLR,,0.04,WeatherDisplay:10.37,2013-07-01 06:59:00,
2013-07-01 17:04:00,59.2,54.7,30.16,West,263,1.0,2.0,85,0.00,CLR,,0.04,WeatherDisplay:10.37,2013-07-01 07:04:00,
2013-07-01 17:09:00,59.2,54.7,30.16,WNW,284,0.0,1.0,85,0.00,CLR,,0.04,WeatherDisplay:10.37,2013-07-01 07:09:00,
2013-07-01 17:14:00,59.0,54.5,30.16,West,281,0.0,0.0,85,0.00,CLR,,0.04,WeatherDisplay:10.37,2013-07-01 07:14:00,
2013-07-01 17:19:00,58.8,54.6,30.16,WSW,248,0.0,0.0,86,0.00,CLR,,0.04,WeatherDisplay:10.37,2013-07-01 07:19:00,
2013-07-01 17:24:00,58.8,54.6,30.16,WSW,252,0.0,0.0,86,0.00,CLR,,0.04,WeatherDisplay:10.37,2013-07-01 07:24:00,
2013-07-01 17:29:00,58.8,54.6,30.16,WNW,300,0.0,1.0,86,0.00,CLR,,0.04,WeatherDisplay:10.37,2013-07-01 07:29:00,
2013-07-01 17:34:00,58.7,54.5,30.16,NW,306,0.0,0.0,86,0.00,CLR,,0.04,WeatherDisplay:10.37,2013-07-01 07:34:00,
2013-07-01 17:39:00,58.6,54.5,30.16,NW,308,0.0,0.0,86,0.00,CLR,,0.04,WeatherDisplay:10.37,2013-07-01 07:39:00,
2013-07-01 17:50:00,58.2,54.0,30.16,NW,325,0.0,0.0,86,0.00,CLR,,0.04,WeatherDisplay:10.37,2013-07-01 07:50:00,
2013-07-01 17:59:00,57.9,53.8,30.17,NW,307,0.0,0.0,86,0.00,CLR,,0.04,WeatherDisplay:10.37,2013-07-01 07:59:00,
2013-07-01 18:04:00,57.9,53.8,30.16,WNW,300,0.0,0.0,86,0.00,CLR,,0.04,WeatherDisplay:10.37,2013-07-01 08:04:00,
2013-07-01 18:09:00,57.9,54.1,30.16,WNW,303,0.0,0.0,87,0.00,CLR,,0.04,WeatherDisplay:10.37,2013-07-01 08:09:00,
2013-07-01 18:14:00,57.7,53.9,30.16,WNW,285,0.0,0.0,87,0.00,CLR,,0.04,WeatherDisplay:10.37,2013-07-01 08:14:00,
2013-07-01 18:19:00,57.7,53.9,30.16,West,272,0.0,0.0,87,0.00,CLR,,0.04,WeatherDisplay:10.37,2013-07-01 08:19:00,
2013-07-01 18:24:00,57.6,53.7,30.16,West,279,0.0,0.0,87,0.00,CLR,,0.04,WeatherDisplay:10.37,2013-07-01 08:24:00,
2013-07-01 18:29:00,57.6,53.7,30.16,NW,316,0.0,1.0,87,0.00,CLR,,0.04,WeatherDisplay:10.37,2013-07-01 08:29:00,
2013-07-01 18:34:00,57.4,53.5,30.16,North,351,0.0,2.0,87,0.00,CLR,,0.04,WeatherDisplay:10.37,2013-07-01 08:34:00,
2013-07-01 18:39:00,57.4,53.5,30.17,NNW,346,0.0,1.0,87,0.00,CLR,,0.04,WeatherDisplay:10.37,2013-07-01 08:39:00,
2013-07-01 18:44:00,57.4,53.5,30.17,NNW,329,0.0,0.0,87,0.00,CLR,,0.04,WeatherDisplay:10.37,2013-07-01 08:44:00,
2013-07-01 18:49:00,57.0,53.2,30.17,NNW,331,0.0,0.0,87,0.00,CLR,,0.04,WeatherDisplay:10.37,2013-07-01 08:49:00,
2013-07-01 18:54:00,57.0,53.2,30.17,NW,320,0.0,0.0,87,0.00,CLR,,0.04,WeatherDisplay:10.37,2013-07-01 08:54:00,
2013-07-01 18:59:00,56.8,53.0,30.17,WNW,299,2.0,7.0,87,0.00,CLR,,0.04,WeatherDisplay:10.37,2013-07-01 08:59:00,
2013-07-01 19:04:00,56.8,53.0,30.17,WNW,285,0.0,0.0,87,0.00,CLR,,0.04,WeatherDisplay:10.37,2013-07-01 09:04:00,
2013-07-01 19:09:00,56.8,53.0,30.17,West,275,0.0,0.0,87,0.00,CLR,,0.04,WeatherDisplay:10.37,2013-07-01 09:09:00,
2013-07-01 19:14:00,56.7,52.8,30.17,West,279,0.0,0.0,87,0.00,CLR,,0.04,WeatherDisplay:10.37,2013-07-01 09:14:00,
2013-07-01 19:19:00,56.5,52.7,30.17,WNW,294,0.0,0.0,87,0.00,CLR,,0.04,WeatherDisplay:10.37,2013-07-01 09:19:00,
2013-07-01 19:24:00,56.5,53.0,30.17,NW,317,0.0,1.0,88,0.00,CLR,,0.04,WeatherDisplay:10.37,2013-07-01 09:24:00,
2013-07-01 19:29:00,56.5,52.7,30.17,North,349,0.0,2.0,87,0.00,CLR,,0.04,WeatherDisplay:10.37,2013-07-01 09:29:00,
2013-07-01 19:34:00,56.3,52.5,30.17,North,359,0.0,1.0,87,0.00,CLR,,0.04,WeatherDisplay:10.37,2013-07-01 09:34:00,
2013-07-01 19:39:00,56.1,52.3,30.16,NNW,335,0.0,1.0,87,0.00,CLR,,0.04,WeatherDisplay:10.37,2013-07-01 09:39:00,
2013-07-01 19:44:00,55.9,52.1,30.17,NW,314,0.0,0.0,87,0.00,CLR,,0.04,WeatherDisplay:10.37,2013-07-01 09:44:00,
2013-07-01 19:49:00,55.9,52.1,30.17,NW,317,0.0,0.0,87,0.00,CLR,,0.04,WeatherDisplay:10.37,2013-07-01 09:49:00,
2013-07-01 19:54:00,55.9,52.1,30.17,North,5,0.0,0.0,87,0.00,CLR,,0.04,WeatherDisplay:10.37,2013-07-01 09:54:00,
2013-07-01 19:59:00,55.7,51.9,30.17,NE,41,0.0,0.0,87,0.00,CLR,,0.04,WeatherDisplay:10.37,2013-07-01 09:59:00,
2013-07-01 20:04:00,55.4,51.6,30.17,NE,37,0.0,1.0,87,0.00,CLR,,0.04,WeatherDisplay:10.37,2013-07-01 10:04:00,
2013-07-01 20:09:00,55.4,51.6,30.17,NNW,337,0.0,0.0,87,0.00,CLR,,0.04,WeatherDisplay:10.37,2013-07-01 10:09:00,
2013-07-01 20:14:00,55.4,51.6,30.17,North,4,0.0,1.0,87,0.00,CLR,,0.04,WeatherDisplay:10.37,2013-07-01 10:14:00,
2013-07-01 20:19:00,55.2,51.4,30.17,North,8,0.0,2.0,87,0.00,CLR,,0.04,WeatherDisplay:10.37,2013-07-01 10:19:00,
2013-07-01 20:24:00,55.2,51.4,30.17,West,274,0.0,0.0,87,0.00,CLR,,0.04,WeatherDisplay:10.37,2013-07-01 10:24:00,
2013-07-01 20:29:00,55.0,51.2,30.17,West,276,0.0,1.0,87,0.00,CLR,,0.04,WeatherDisplay:10.37,2013-07-01 10:29:00,
2013-07-01 20:34:00,55.0,51.2,30.17,North,359,0.0,1.0,87,0.00,CLR,,0.04,WeatherDisplay:10.37,2013-07-01 10:34:00,
2013-07-01 20:39:00,54.8,51.0,30.17,NW,313,0.0,0.0,87,0.00,CLR,,0.04,WeatherDisplay:10.37,2013-07-01 10:39:00,
2013-07-01 20:44:00,54.5,50.7,30.17,WNW,297,0.0,0.0,87,0.00,CLR,,0.04,WeatherDisplay:10.37,2013-07-01 10:44:00,
2013-07-01 20:49:00,54.3,50.5,30.17,WNW,301,0.0,0.0,87,0.00,CLR,,0.04,WeatherDisplay:10.37,2013-07-01 10:49:00,
2013-07-01 20:54:00,54.3,50.5,30.17,NNW,331,0.0,0.0,87,0.00,CLR,,0.04,WeatherDisplay:10.37,2013-07-01 10:54:00,
2013-07-01 20:59:00,54.3,50.5,30.17,North,355,0.0,0.0,87,0.00,CLR,,0.04,WeatherDisplay:10.37,2013-07-01 10:59:00,
2013-07-01 21:04:00,54.3,50.5,30.17,North,359,0.0,0.0,87,0.00,CLR,,0.04,WeatherDisplay:10.37,2013-07-01 11:04:00,
2013-07-01 21:09:00,54.2,50.1,30.17,North,0,0.0,0.0,86,0.00,CLR,,0.04,WeatherDisplay:10.37,2013-07-01 11:09:00,
2013-07-01 21:14:00,54.1,50.0,30.17,North,0,0.0,0.0,86,0.00,CLR,,0.04,WeatherDisplay:10.37,2013-07-01 11:14:00,
2013-07-01 21:19:00,54.0,49.9,30.17,North,358,0.0,0.0,86,0.00,CLR,,0.04,WeatherDisplay:10.37,2013-07-01 11:19:00,
2013-07-01 21:24:00,54.0,49.9,30.17,North,352,0.0,0.0,86,0.00,CLR,,0.04,WeatherDisplay:10.37,2013-07-01 11:24:00,
2013-07-01 21:29:00,53.9,49.8,30.18,North,353,0.0,0.0,86,0.00,CLR,,0.04,WeatherDisplay:10.37,2013-07-01 11:29:00,
2013-07-01 21:34:00,53.8,49.7,30.18,North,360,0.0,0.0,86,0.00,CLR,,0.04,WeatherDisplay:10.37,2013-07-01 11:34:00,
2013-07-01 21:39:00,53.4,49.3,30.18,North,360,0.0,0.0,86,0.00,CLR,,0.04,WeatherDisplay:10.37,2013-07-01 11:39:00,
2013-07-01 21:44:00,53.4,49.3,30.18,North,349,0.0,0.0,86,0.00,CLR,,0.04,WeatherDisplay:10.37,2013-07-01 11:44:00,
2013-07-01 21:49:00,53.4,49.3,30.18,NNW,346,0.0,0.0,86,0.00,CLR,,0.04,WeatherDisplay:10.37,2013-07-01 11:49:00,
2013-07-01 21:54:00,53.4,49.3,30.18,North,0,0.0,0.0,86,0.00,CLR,,0.04,WeatherDisplay:10.37,2013-07-01 11:54:00,
2013-07-01 21:59:00,53.2,48.8,30.18,North,0,0.0,0.0,85,0.00,CLR,,0.04,WeatherDisplay:10.37,2013-07-01 11:59:00,
2013-07-01 22:04:00,52.9,48.6,30.18,North,351,0.0,0.0,85,0.00,CLR,,0.04,WeatherDisplay:10.37,2013-07-01 12:04:00,
2013-07-01 22:09:00,52.9,48.9,30.18,North,351,0.0,0.0,86,0.00,CLR,,0.04,WeatherDisplay:10.37,2013-07-01 12:09:00,
2013-07-01 22:14:00,52.9,48.8,30.18,North,0,0.0,0.0,86,0.00,CLR,,0.04,WeatherDisplay:10.37,2013-07-01 12:14:00,
2013-07-01 22:19:00,52.9,48.8,30.18,North,360,0.0,0.0,86,0.00,CLR,,0.04,WeatherDisplay:10.37,2013-07-01 12:19:00,
2013-07-01 22:24:00,52.9,48.8,30.18,North,0,0.0,0.0,86,0.00,CLR,,0.04,WeatherDisplay:10.37,2013-07-01 12:24:00,
2013-07-01 22:29:00,52.7,48.3,30.18,NNE,13,0.0,0.0,85,0.00,CLR,,0.04,WeatherDisplay:10.37,2013-07-01 12:29:00,
2013-07-01 22:34:00,52.7,48.3,30.18,NW,312,0.0,0.0,85,0.00,CLR,,0.04,WeatherDisplay:10.37,2013-07-01 12:34:00,
2013-07-01 22:39:00,52.5,48.1,30.18,SW,234,0.0,0.0,85,0.00,CLR,,0.04,WeatherDisplay:10.37,2013-07-01 12:39:00,
2013-07-01 22:44:00,52.5,48.1,30.18,SW,226,0.0,0.0,85,0.00,CLR,,0.04,WeatherDisplay:10.37,2013-07-01 12:44:00,
2013-07-01 22:49:00,52.3,48.0,30.18,SW,229,0.0,0.0,85,0.00,CLR,,0.04,WeatherDisplay:10.37,2013-07-01 12:49:00,
2013-07-01 22:54:00,52.3,48.0,30.18,SW,228,0.0,0.0,85,0.00,CLR,,0.04,WeatherDisplay:10.37,2013-07-01 12:54:00,
2013-07-01 22:59:00,52.3,48.3,30.18,SW,226,0.0,0.0,86,0.00,CLR,,0.04,WeatherDisplay:10.37,2013-07-01 12:59:00,
2013-07-01 23:09:00,52.3,48.3,30.18,SW,225,0.0,0.0,86,0.00,CLR,,0.04,WeatherDisplay:10.37,2013-07-01 13:09:00,
2013-07-01 23:14:00,52.2,48.1,30.18,SW,225,0.0,0.0,86,0.00,CLR,,0.04,WeatherDisplay:10.37,2013-07-01 13:14:00,
2013-07-01 23:19:00,52.2,48.1,30.18,SW,228,0.0,0.0,86,0.00,CLR,,0.04,WeatherDisplay:10.37,2013-07-01 13:19:00,
2013-07-01 23:24:00,52.3,48.3,30.18,NNW,327,0.0,2.0,86,0.00,CLR,,0.04,WeatherDisplay:10.37,2013-07-01 13:24:00,
2013-07-01 23:29:00,52.0,48.0,30.17,NNE,16,0.0,2.0,86,0.00,CLR,,0.04,WeatherDisplay:10.37,2013-07-01 13:29:00,
2013-07-01 23:34:00,52.2,48.1,30.18,North,2,0.0,1.0,86,0.00,CLR,,0.04,WeatherDisplay:10.37,2013-07-01 13:34:00,
2013-07-01 23:39:00,52.0,47.9,30.17,NNW,341,0.0,0.0,86,0.00,CLR,,0.04,WeatherDisplay:10.37,2013-07-01 13:39:00,
2013-07-01 23:44:00,52.0,47.9,30.17,NW,313,0.0,0.0,86,0.00,CLR,,0.04,WeatherDisplay:10.37,2013-07-01 13:44:00,
2013-07-01 23:49:00,51.7,47.6,30.17,West,263,0.0,0.0,86,0.00,CLR,,0.04,WeatherDisplay:10.37,2013-07-01 13:49:00,
2013-07-01 23:54:00,51.7,47.6,30.17,WSW,253,0.0,0.0,86,0.00,CLR,,0.04,WeatherDisplay:10.37,2013-07-01 13:54:00,
2013-07-01 23:59:00,51.7,47.6,30.17,West,264,0.0,0.0,86,0.00,CLR,,0.04,WeatherDisplay:10.37,2013-07-01 13:59:00,